sensor_id;sensor_type;location;lat;lon;timestamp;pressure;altitude;pressure_sealevel;temperature;humidity
20612;BME280;10465;42.686;23.364;2024-02-21T00:01:16;95621.22;;;8.11;85.38
20612;BME280;10465;42.686;23.364;2024-02-21T00:03:42;95640.66;;;8.25;85.03
20612;BME280;10465;42.686;23.364;2024-02-21T00:06:08;95637.78;;;8.27;84.91
20612;BME280;10465;42.686;23.364;2024-02-21T00:08:33;95602.22;;;8.09;84.38
20612;BME280;10465;42.686;23.364;2024-02-21T00:10:59;95626.69;;;8.25;84.77
20612;BME280;10465;42.686;23.364;2024-02-21T00:13:24;95627.25;;;8.16;84.42
20612;BME280;10465;42.686;23.364;2024-02-21T00:15:49;95640.13;;;8.28;84.37
20612;BME280;10465;42.686;23.364;2024-02-21T00:18:15;95635.13;;;8.22;84.16
20612;BME280;10465;42.686;23.364;2024-02-21T00:20:40;95639.38;;;8.23;84.30
20612;BME280;10465;42.686;23.364;2024-02-21T00:23:05;95623.56;;;8.17;84.58
20612;BME280;10465;42.686;23.364;2024-02-21T00:25:31;95632.50;;;8.27;84.28
20612;BME280;10465;42.686;23.364;2024-02-21T00:27:56;95626.47;;;8.16;84.46
20612;BME280;10465;42.686;23.364;2024-02-21T00:30:22;95633.59;;;8.15;84.64
20612;BME280;10465;42.686;23.364;2024-02-21T00:32:47;95610.72;;;7.96;85.05
20612;BME280;10465;42.686;23.364;2024-02-21T00:35:13;95632.31;;;8.08;84.93
20612;BME280;10465;42.686;23.364;2024-02-21T00:37:39;95618.88;;;8.04;85.18
20612;BME280;10465;42.686;23.364;2024-02-21T00:40:05;95609.97;;;7.90;85.39
20612;BME280;10465;42.686;23.364;2024-02-21T00:42:31;95620.19;;;8.07;85.25
20612;BME280;10465;42.686;23.364;2024-02-21T00:44:56;95612.03;;;8.03;85.36
20612;BME280;10465;42.686;23.364;2024-02-21T00:47:21;95599.44;;;7.90;85.52
20612;BME280;10465;42.686;23.364;2024-02-21T00:49:47;95596.78;;;7.90;85.35
20612;BME280;10465;42.686;23.364;2024-02-21T00:52:12;95600.19;;;7.96;85.51
20612;BME280;10465;42.686;23.364;2024-02-21T00:54:37;95610.41;;;8.07;85.24
20612;BME280;10465;42.686;23.364;2024-02-21T00:57:03;95615.16;;;8.05;85.40
20612;BME280;10465;42.686;23.364;2024-02-21T00:59:28;95590.97;;;7.93;85.19
20612;BME280;10465;42.686;23.364;2024-02-21T01:01:54;95616.75;;;8.06;85.73
20612;BME280;10465;42.686;23.364;2024-02-21T01:04:19;95603.81;;;8.10;85.37
20612;BME280;10465;42.686;23.364;2024-02-21T01:06:44;95594.34;;;8.04;85.46
20612;BME280;10465;42.686;23.364;2024-02-21T01:09:11;95601.97;;;8.05;85.36
20612;BME280;10465;42.686;23.364;2024-02-21T01:11:36;95593.06;;;7.96;85.35
20612;BME280;10465;42.686;23.364;2024-02-21T01:14:02;95589.88;;;7.99;85.49
20612;BME280;10465;42.686;23.364;2024-02-21T01:16:28;95596.19;;;8.03;85.54
20612;BME280;10465;42.686;23.364;2024-02-21T01:18:53;95566.19;;;7.89;85.36
20612;BME280;10465;42.686;23.364;2024-02-21T01:21:18;95587.78;;;7.96;85.61
20612;BME280;10465;42.686;23.364;2024-02-21T01:23:44;95584.38;;;7.96;85.81
20612;BME280;10465;42.686;23.364;2024-02-21T01:26:09;95591.53;;;7.90;86.30
20612;BME280;10465;42.686;23.364;2024-02-21T01:28:38;95579.44;;;7.79;86.52
20612;BME280;10465;42.686;23.364;2024-02-21T01:31:03;95586.78;;;7.87;86.69
20612;BME280;10465;42.686;23.364;2024-02-21T01:33:29;95582.00;;;7.89;86.65
20612;BME280;10465;42.686;23.364;2024-02-21T01:36:00;95556.25;;;7.76;86.38
20612;BME280;10465;42.686;23.364;2024-02-21T01:38:26;95574.38;;;7.87;86.57
20612;BME280;10465;42.686;23.364;2024-02-21T01:40:51;95577.31;;;7.86;86.18
20612;BME280;10465;42.686;23.364;2024-02-21T01:43:18;95570.72;;;7.83;86.58
20612;BME280;10465;42.686;23.364;2024-02-21T01:45:48;95577.31;;;7.86;86.97
20612;BME280;10465;42.686;23.364;2024-02-21T01:48:14;95570.16;;;7.81;86.79
20612;BME280;10465;42.686;23.364;2024-02-21T01:50:40;95554.63;;;7.80;86.33
20612;BME280;10465;42.686;23.364;2024-02-21T01:53:06;95538.56;;;7.76;85.43
20612;BME280;10465;42.686;23.364;2024-02-21T01:55:32;95539.34;;;7.77;85.26
20612;BME280;10465;42.686;23.364;2024-02-21T01:57:58;95567.19;;;8.03;84.99
20612;BME280;10465;42.686;23.364;2024-02-21T02:00:24;95549.56;;;7.93;84.82
20612;BME280;10465;42.686;23.364;2024-02-21T02:02:50;95570.84;;;8.12;84.13
20612;BME280;10465;42.686;23.364;2024-02-21T02:05:16;95569.53;;;8.15;83.70
20612;BME280;10465;42.686;23.364;2024-02-21T02:07:42;95572.13;;;8.20;83.27
20612;BME280;10465;42.686;23.364;2024-02-21T02:10:08;95562.09;;;8.17;82.61
20612;BME280;10465;42.686;23.364;2024-02-21T02:12:35;95557.38;;;8.14;82.45
20612;BME280;10465;42.686;23.364;2024-02-21T02:15:02;95562.09;;;8.17;82.15
20612;BME280;10465;42.686;23.364;2024-02-21T02:17:30;95553.94;;;8.13;82.50
20612;BME280;10465;42.686;23.364;2024-02-21T02:19:55;95567.34;;;8.22;82.70
20612;BME280;10465;42.686;23.364;2024-02-21T02:22:24;95506.13;;;7.81;82.11
20612;BME280;10465;42.686;23.364;2024-02-21T02:24:53;95544.44;;;8.17;82.04
20612;BME280;10465;42.686;23.364;2024-02-21T02:27:18;95567.59;;;8.26;82.01
20612;BME280;10465;42.686;23.364;2024-02-21T02:29:44;95541.59;;;8.09;82.05
20612;BME280;10465;42.686;23.364;2024-02-21T02:32:09;95559.75;;;8.15;82.54
20612;BME280;10465;42.686;23.364;2024-02-21T02:34:35;95557.38;;;8.14;82.92
20612;BME280;10465;42.686;23.364;2024-02-21T02:37:00;95540.31;;;8.01;82.99
20612;BME280;10465;42.686;23.364;2024-02-21T02:39:25;95540.03;;;8.03;83.13
20612;BME280;10465;42.686;23.364;2024-02-21T02:41:51;95546.13;;;7.98;83.40
20612;BME280;10465;42.686;23.364;2024-02-21T02:44:16;95528.00;;;7.86;83.71
20612;BME280;10465;42.686;23.364;2024-02-21T02:46:42;95556.91;;;8.02;83.81
20612;BME280;10465;42.686;23.364;2024-02-21T02:49:08;95554.84;;;7.99;83.87
20612;BME280;10465;42.686;23.364;2024-02-21T02:51:33;95561.41;;;7.96;84.13
20612;BME280;10465;42.686;23.364;2024-02-21T02:53:59;95554.59;;;7.95;84.17
20612;BME280;10465;42.686;23.364;2024-02-21T02:56:24;95549.88;;;7.87;84.55
20612;BME280;10465;42.686;23.364;2024-02-21T02:58:50;95499.66;;;7.53;84.40
20612;BME280;10465;42.686;23.364;2024-02-21T03:01:15;95552.50;;;7.82;84.66
20612;BME280;10465;42.686;23.364;2024-02-21T03:03:41;95533.84;;;7.78;84.74
20612;BME280;10465;42.686;23.364;2024-02-21T03:06:06;95549.34;;;7.85;84.69
20612;BME280;10465;42.686;23.364;2024-02-21T03:08:31;95502.56;;;7.51;85.06
20612;BME280;10465;42.686;23.364;2024-02-21T03:10:58;95556.22;;;7.86;85.29
20612;BME280;10465;42.686;23.364;2024-02-21T03:13:25;95551.47;;;7.83;85.41
20612;BME280;10465;42.686;23.364;2024-02-21T03:15:50;95573.56;;;7.92;85.00
20612;BME280;10465;42.686;23.364;2024-02-21T03:18:16;95577.78;;;7.98;84.86
20612;BME280;10465;42.686;23.364;2024-02-21T03:20:41;95571.16;;;8.01;84.99
20612;BME280;10465;42.686;23.364;2024-02-21T03:23:07;95487.28;;;7.53;84.73
20612;BME280;10465;42.686;23.364;2024-02-21T03:25:32;95573.22;;;8.09;84.22
20612;BME280;10465;42.686;23.364;2024-02-21T03:27:57;95543.53;;;7.88;84.10
20612;BME280;10465;42.686;23.364;2024-02-21T03:30:23;95563.53;;;7.99;84.33
20612;BME280;10465;42.686;23.364;2024-02-21T03:32:48;95576.16;;;8.07;83.93
20612;BME280;10465;42.686;23.364;2024-02-21T03:35:14;95586.41;;;8.09;84.02
20612;BME280;10465;42.686;23.364;2024-02-21T03:37:39;95558.78;;;7.96;83.30
20612;BME280;10465;42.686;23.364;2024-02-21T03:40:08;95585.06;;;8.16;83.27
20612;BME280;10465;42.686;23.364;2024-02-21T03:42:34;95583.00;;;8.08;83.57
20612;BME280;10465;42.686;23.364;2024-02-21T03:44:59;95586.16;;;8.05;83.59
20612;BME280;10465;42.686;23.364;2024-02-21T03:47:25;95567.75;;;7.95;83.68
20612;BME280;10465;42.686;23.364;2024-02-21T03:49:50;95592.22;;;8.11;83.54
20612;BME280;10465;42.686;23.364;2024-02-21T03:52:15;95588.53;;;8.02;83.68
20612;BME280;10465;42.686;23.364;2024-02-21T03:54:42;95548.31;;;7.76;83.82
20612;BME280;10465;42.686;23.364;2024-02-21T03:57:07;95596.97;;;8.09;83.21
20612;BME280;10465;42.686;23.364;2024-02-21T03:59:32;95590.66;;;8.05;83.40
20612;BME280;10465;42.686;23.364;2024-02-21T04:01:58;95577.22;;;8.01;83.48
20612;BME280;10465;42.686;23.364;2024-02-21T04:04:24;95572.22;;;8.00;83.50
20612;BME280;10465;42.686;23.364;2024-02-21T04:06:50;95586.16;;;8.05;83.48
20612;BME280;10465;42.686;23.364;2024-02-21T04:09:15;95590.69;;;8.00;84.04
20612;BME280;10465;42.686;23.364;2024-02-21T04:11:41;95581.97;;;7.99;84.20
20612;BME280;10465;42.686;23.364;2024-02-21T04:14:07;95585.13;;;8.01;84.38
20612;BME280;10465;42.686;23.364;2024-02-21T04:16:32;95555.16;;;7.87;83.87
20612;BME280;10465;42.686;23.364;2024-02-21T04:18:58;95557.78;;;7.87;83.55
20612;BME280;10465;42.686;23.364;2024-02-21T04:21:23;95579.84;;;8.06;83.25
20612;BME280;10465;42.686;23.364;2024-02-21T04:23:49;95578.25;;;8.05;82.69
20612;BME280;10465;42.686;23.364;2024-02-21T04:26:14;95580.06;;;8.10;82.93
20612;BME280;10465;42.686;23.364;2024-02-21T04:28:40;95571.16;;;8.01;82.33
20612;BME280;10465;42.686;23.364;2024-02-21T04:31:05;95576.69;;;8.04;82.99
20612;BME280;10465;42.686;23.364;2024-02-21T04:33:30;95581.44;;;7.97;83.24
20612;BME280;10465;42.686;23.364;2024-02-21T04:35:56;95569.88;;;7.93;83.54
20612;BME280;10465;42.686;23.364;2024-02-21T04:38:23;95593.56;;;8.03;82.88
20612;BME280;10465;42.686;23.364;2024-02-21T04:40:49;95589.88;;;7.99;82.90
20612;BME280;10465;42.686;23.364;2024-02-21T04:43:14;95582.50;;;7.96;83.03
20612;BME280;10465;42.686;23.364;2024-02-21T04:45:40;95568.03;;;7.88;82.74
20612;BME280;10465;42.686;23.364;2024-02-21T04:48:05;95586.44;;;8.04;82.97
20612;BME280;10465;42.686;23.364;2024-02-21T04:50:31;95555.97;;;7.82;82.94
20612;BME280;10465;42.686;23.364;2024-02-21T04:52:56;95579.59;;;7.98;82.85
20612;BME280;10465;42.686;23.364;2024-02-21T04:55:21;95584.88;;;8.03;82.97
20612;BME280;10465;42.686;23.364;2024-02-21T04:57:47;95579.09;;;7.96;82.76
20612;BME280;10465;42.686;23.364;2024-02-21T05:00:12;95584.13;;;7.92;83.06
20612;BME280;10465;42.686;23.364;2024-02-21T05:02:38;95571.78;;;7.82;83.15
20612;BME280;10465;42.686;23.364;2024-02-21T05:05:03;95590.16;;;7.92;83.29
20612;BME280;10465;42.686;23.364;2024-02-21T05:07:29;95579.94;;;7.81;83.69
20612;BME280;10465;42.686;23.364;2024-02-21T05:09:54;95583.38;;;7.76;84.58
20612;BME280;10465;42.686;23.364;2024-02-21T05:12:20;95573.66;;;7.66;84.76
20612;BME280;10465;42.686;23.364;2024-02-21T05:14:45;95571.84;;;7.57;85.22
20612;BME280;10465;42.686;23.364;2024-02-21T05:17:10;95595.50;;;7.72;85.57
20612;BME280;10465;42.686;23.364;2024-02-21T05:19:36;95597.38;;;7.72;85.84
20612;BME280;10465;42.686;23.364;2024-02-21T05:22:01;95610.56;;;7.66;86.14
20612;BME280;10465;42.686;23.364;2024-02-21T05:24:26;95591.09;;;7.52;86.14
20612;BME280;10465;42.686;23.364;2024-02-21T05:26:53;95559.28;;;7.33;86.61
20612;BME280;10465;42.686;23.364;2024-02-21T05:29:19;95577.66;;;7.43;86.67
20612;BME280;10465;42.686;23.364;2024-02-21T05:34:16;95605.00;;;7.68;89.49
20612;BME280;10465;42.686;23.364;2024-02-21T05:36:41;95597.34;;;7.77;89.17
20612;BME280;10465;42.686;23.364;2024-02-21T05:39:06;95591.00;;;7.78;88.02
20612;BME280;10465;42.686;23.364;2024-02-21T05:41:32;95594.19;;;7.80;86.23
20612;BME280;10465;42.686;23.364;2024-02-21T05:43:57;95597.84;;;7.84;86.17
20612;BME280;10465;42.686;23.364;2024-02-21T05:46:22;95597.38;;;7.66;85.99
20612;BME280;10465;42.686;23.364;2024-02-21T05:48:48;95595.78;;;7.71;85.72
20612;BME280;10465;42.686;23.364;2024-02-21T05:51:13;95615.53;;;7.73;86.06
20612;BME280;10465;42.686;23.364;2024-02-21T05:53:39;95606.59;;;7.64;86.28
20612;BME280;10465;42.686;23.364;2024-02-21T05:56:10;95601.63;;;7.62;85.70
20612;BME280;10465;42.686;23.364;2024-02-21T05:58:36;95605.28;;;7.61;85.57
20612;BME280;10465;42.686;23.364;2024-02-21T06:01:01;95614.25;;;7.71;85.18
20612;BME280;10465;42.686;23.364;2024-02-21T06:03:29;95612.91;;;7.68;84.56
20612;BME280;10465;42.686;23.364;2024-02-21T06:05:54;95613.44;;;7.75;84.84
20612;BME280;10465;42.686;23.364;2024-02-21T06:08:20;95560.53;;;7.41;84.82
20612;BME280;10465;42.686;23.364;2024-02-21T06:10:45;95623.19;;;7.75;84.99
20612;BME280;10465;42.686;23.364;2024-02-21T06:13:11;95614.75;;;7.73;84.52
20612;BME280;10465;42.686;23.364;2024-02-21T06:15:36;95615.03;;;7.66;84.88
20612;BME280;10465;42.686;23.364;2024-02-21T06:18:01;95638.19;;;7.84;85.12
20612;BME280;10465;42.686;23.364;2024-02-21T06:20:27;95643.69;;;7.88;84.78
20612;BME280;10465;42.686;23.364;2024-02-21T06:22:53;95626.31;;;7.87;84.32
20612;BME280;10465;42.686;23.364;2024-02-21T06:25:18;95608.66;;;7.87;82.73
20612;BME280;10465;42.686;23.364;2024-02-21T06:27:44;95621.03;;;7.92;82.78
20612;BME280;10465;42.686;23.364;2024-02-21T06:30:09;95625.75;;;8.00;82.02
20612;BME280;10465;42.686;23.364;2024-02-21T06:32:35;95638.91;;;8.10;80.87
20612;BME280;10465;42.686;23.364;2024-02-21T06:35:00;95652.56;;;8.17;81.30
20612;BME280;10465;42.686;23.364;2024-02-21T06:37:27;95599.16;;;7.86;80.98
20612;BME280;10465;42.686;23.364;2024-02-21T06:39:52;95654.16;;;8.13;81.85
20612;BME280;10465;42.686;23.364;2024-02-21T06:42:18;95644.16;;;8.15;82.13
20612;BME280;10465;42.686;23.364;2024-02-21T06:44:44;95659.91;;;8.26;82.57
20612;BME280;10465;42.686;23.364;2024-02-21T06:47:09;95671.53;;;8.25;82.86
20612;BME280;10465;42.686;23.364;2024-02-21T06:49:35;95665.19;;;8.31;82.46
20612;BME280;10465;42.686;23.364;2024-02-21T06:52:04;95634.66;;;8.14;81.69
20612;BME280;10465;42.686;23.364;2024-02-21T06:54:30;95655.44;;;8.21;81.82
20612;BME280;10465;42.686;23.364;2024-02-21T06:56:55;95674.94;;;8.40;82.10
20612;BME280;10465;42.686;23.364;2024-02-21T06:59:20;95645.91;;;8.30;81.81
20612;BME280;10465;42.686;23.364;2024-02-21T07:01:48;95668.81;;;8.50;81.32
20612;BME280;10465;42.686;23.364;2024-02-21T07:04:14;95644.34;;;8.39;80.60
20612;BME280;10465;42.686;23.364;2024-02-21T07:06:40;95659.59;;;8.48;80.21
20612;BME280;10465;42.686;23.364;2024-02-21T07:09:05;95653.03;;;8.40;80.63
20612;BME280;10465;42.686;23.364;2024-02-21T07:11:30;95655.38;;;8.47;80.48
20612;BME280;10465;42.686;23.364;2024-02-21T07:13:56;95661.13;;;8.59;80.00
20612;BME280;10465;42.686;23.364;2024-02-21T07:16:21;95667.66;;;8.72;79.59
20612;BME280;10465;42.686;23.364;2024-02-21T07:18:47;95669.50;;;8.71;79.95
20612;BME280;10465;42.686;23.364;2024-02-21T07:21:12;95643.19;;;8.56;80.07
20612;BME280;10465;42.686;23.364;2024-02-21T07:23:41;95673.41;;;8.84;80.06
20612;BME280;10465;42.686;23.364;2024-02-21T07:26:07;95652.06;;;8.70;79.54
20612;BME280;10465;42.686;23.364;2024-02-21T07:28:33;95676.28;;;8.82;79.78
20612;BME280;10465;42.686;23.364;2024-02-21T07:30:59;95669.72;;;8.75;79.28
20612;BME280;10465;42.686;23.364;2024-02-21T07:33:25;95678.34;;;8.90;78.86
20612;BME280;10465;42.686;23.364;2024-02-21T07:35:50;95662.59;;;8.80;78.50
20612;BME280;10465;42.686;23.364;2024-02-21T07:38:16;95677.06;;;8.88;78.68
20612;BME280;10465;42.686;23.364;2024-02-21T07:40:44;95686.53;;;8.94;78.62
20612;BME280;10465;42.686;23.364;2024-02-21T07:43:10;95678.94;;;8.87;78.53
20612;BME280;10465;42.686;23.364;2024-02-21T07:45:35;95683.38;;;8.87;78.58
20612;BME280;10465;42.686;23.364;2024-02-21T07:48:01;95682.81;;;8.95;78.41
20612;BME280;10465;42.686;23.364;2024-02-21T07:50:27;95663.88;;;8.88;77.58
20612;BME280;10465;42.686;23.364;2024-02-21T07:52:52;95657.28;;;8.85;77.79
20612;BME280;10465;42.686;23.364;2024-02-21T07:55:18;95669.59;;;9.00;77.72
20612;BME280;10465;42.686;23.364;2024-02-21T07:57:43;95653.22;;;8.98;77.88
20612;BME280;10465;42.686;23.364;2024-02-21T08:00:09;95661.34;;;9.07;77.64
20612;BME280;10465;42.686;23.364;2024-02-21T08:02:38;95644.50;;;8.98;76.96
20612;BME280;10465;42.686;23.364;2024-02-21T08:05:04;95666.63;;;9.12;76.97
20612;BME280;10465;42.686;23.364;2024-02-21T08:07:29;95651.09;;;9.00;77.55
20612;BME280;10465;42.686;23.364;2024-02-21T08:09:56;95656.03;;;9.12;77.33
20612;BME280;10465;42.686;23.364;2024-02-21T08:12:21;95666.44;;;9.32;77.19
20612;BME280;10465;42.686;23.364;2024-02-21T08:14:47;95674.56;;;9.41;76.54
20612;BME280;10465;42.686;23.364;2024-02-21T08:17:12;95666.22;;;9.29;76.15
20612;BME280;10465;42.686;23.364;2024-02-21T08:19:37;95641.81;;;9.08;77.04
20612;BME280;10465;42.686;23.364;2024-02-21T08:22:03;95665.78;;;9.16;77.29
20612;BME280;10465;42.686;23.364;2024-02-21T08:24:28;95663.88;;;9.22;76.50
20612;BME280;10465;42.686;23.364;2024-02-21T08:26:54;95672.00;;;9.31;76.92
20612;BME280;10465;42.686;23.364;2024-02-21T08:29:19;95670.94;;;9.32;76.00
20612;BME280;10465;42.686;23.364;2024-02-21T08:31:45;95660.03;;;9.38;74.55
20612;BME280;10465;42.686;23.364;2024-02-21T08:34:10;95665.44;;;9.57;74.05
20612;BME280;10465;42.686;23.364;2024-02-21T08:36:36;95669.28;;;9.70;74.05
20612;BME280;10465;42.686;23.364;2024-02-21T08:39:03;95650.94;;;9.79;73.65
20612;BME280;10465;42.686;23.364;2024-02-21T08:41:30;95651.59;;;9.95;72.20
20612;BME280;10465;42.686;23.364;2024-02-21T08:43:56;95658.50;;;10.14;70.55
20612;BME280;10465;42.686;23.364;2024-02-21T08:46:21;95636.03;;;10.12;69.90
20612;BME280;10465;42.686;23.364;2024-02-21T08:48:47;95649.66;;;10.29;69.25
20612;BME280;10465;42.686;23.364;2024-02-21T08:51:13;95635.94;;;10.46;67.91
20612;BME280;10465;42.686;23.364;2024-02-21T08:53:39;95670.94;;;10.62;68.08
20612;BME280;10465;42.686;23.364;2024-02-21T08:56:05;95668.66;;;10.74;67.61
20612;BME280;10465;42.686;23.364;2024-02-21T08:58:30;95650.16;;;10.69;67.19
20612;BME280;10465;42.686;23.364;2024-02-21T09:00:56;95670.88;;;10.86;66.13
20612;BME280;10465;42.686;23.364;2024-02-21T09:03:22;95676.44;;;10.84;65.37
20612;BME280;10465;42.686;23.364;2024-02-21T09:05:48;95673.03;;;10.84;65.17
20612;BME280;10465;42.686;23.364;2024-02-21T09:08:13;95674.31;;;10.86;65.66
20612;BME280;10465;42.686;23.364;2024-02-21T09:10:41;95672.94;;;10.89;65.92
20612;BME280;10465;42.686;23.364;2024-02-21T09:13:07;95662.00;;;10.77;65.10
20612;BME280;10465;42.686;23.364;2024-02-21T09:15:34;95681.53;;;10.81;65.51
20612;BME280;10465;42.686;23.364;2024-02-21T09:17:59;95665.22;;;10.74;65.83
20612;BME280;10465;42.686;23.364;2024-02-21T09:20:24;95668.81;;;10.83;66.39
20612;BME280;10465;42.686;23.364;2024-02-21T09:22:50;95676.00;;;10.77;65.24
20612;BME280;10465;42.686;23.364;2024-02-21T09:25:17;95659.47;;;10.48;65.48
20612;BME280;10465;42.686;23.364;2024-02-21T09:27:44;95668.19;;;10.48;65.58
20612;BME280;10465;42.686;23.364;2024-02-21T09:30:10;95659.47;;;10.48;65.43
20612;BME280;10465;42.686;23.364;2024-02-21T09:32:36;95668.56;;;10.60;65.24
20612;BME280;10465;42.686;23.364;2024-02-21T09:35:02;95649.09;;;10.51;65.57
20612;BME280;10465;42.686;23.364;2024-02-21T09:37:28;95627.69;;;10.24;65.89
20612;BME280;10465;42.686;23.364;2024-02-21T09:39:53;95662.91;;;10.48;65.69
20612;BME280;10465;42.686;23.364;2024-02-21T09:42:20;95676.81;;;10.59;65.07
20612;BME280;10465;42.686;23.364;2024-02-21T09:44:47;95676.44;;;10.47;66.18
20612;BME280;10465;42.686;23.364;2024-02-21T09:47:19;95680.00;;;10.56;65.42
20612;BME280;10465;42.686;23.364;2024-02-21T09:49:47;95678.88;;;10.62;65.20
20612;BME280;10465;42.686;23.364;2024-02-21T09:52:15;95673.75;;;10.71;65.50
20612;BME280;10465;42.686;23.364;2024-02-21T09:54:45;95656.84;;;10.67;64.75
20612;BME280;10465;42.686;23.364;2024-02-21T09:57:10;95666.94;;;10.83;64.72
20612;BME280;10465;42.686;23.364;2024-02-21T09:59:37;95660.34;;;10.81;64.80
20612;BME280;10465;42.686;23.364;2024-02-21T10:02:03;95642.53;;;10.68;64.87
20612;BME280;10465;42.686;23.364;2024-02-21T10:04:31;95648.19;;;10.80;65.42
20612;BME280;10465;42.686;23.364;2024-02-21T10:06:57;95667.00;;;10.97;64.42
20612;BME280;10465;42.686;23.364;2024-02-21T10:09:23;95665.28;;;11.06;63.83
20612;BME280;10465;42.686;23.364;2024-02-21T10:11:49;95645.31;;;10.95;62.33
20612;BME280;10465;42.686;23.364;2024-02-21T10:14:18;95662.13;;;11.04;61.41
20612;BME280;10465;42.686;23.364;2024-02-21T10:16:46;95659.44;;;10.91;61.55
20612;BME280;10465;42.686;23.364;2024-02-21T10:19:19;95644.88;;;10.69;61.47
20612;BME280;10465;42.686;23.364;2024-02-21T10:21:45;95643.44;;;10.77;61.69
20612;BME280;10465;42.686;23.364;2024-02-21T10:24:12;95633.94;;;10.76;61.41
20612;BME280;10465;42.686;23.364;2024-02-21T10:26:37;95604.50;;;10.77;61.50
20612;BME280;10465;42.686;23.364;2024-02-21T10:29:03;95628.38;;;11.10;60.12
20612;BME280;10465;42.686;23.364;2024-02-21T10:31:29;95630.09;;;11.20;58.89
20612;BME280;10465;42.686;23.364;2024-02-21T10:33:59;95633.88;;;11.32;58.75
20612;BME280;10465;42.686;23.364;2024-02-21T10:36:28;95628.59;;;11.46;58.33
20612;BME280;10465;42.686;23.364;2024-02-21T10:38:54;95618.41;;;11.53;57.05
20612;BME280;10465;42.686;23.364;2024-02-21T10:41:20;95619.72;;;11.70;56.32
20612;BME280;10465;42.686;23.364;2024-02-21T10:43:50;95606.34;;;11.75;56.19
20612;BME280;10465;42.686;23.364;2024-02-21T10:46:21;95584.66;;;11.73;55.98
20612;BME280;10465;42.686;23.364;2024-02-21T10:49:22;95597.53;;;12.07;54.46
20612;BME280;10465;42.686;23.364;2024-02-21T10:51:43;95529.03;;;11.81;53.74
20612;BME280;10465;42.686;23.364;2024-02-21T10:54:16;95589.16;;;12.41;53.58
20612;BME280;10465;42.686;23.364;2024-02-21T10:56:49;95575.13;;;12.63;53.90
20612;BME280;10465;42.686;23.364;2024-02-21T10:59:17;95573.75;;;12.66;54.07
20612;BME280;10465;42.686;23.364;2024-02-21T11:01:43;95547.00;;;12.62;53.83
20612;BME280;10465;42.686;23.364;2024-02-21T11:04:09;95564.94;;;12.79;53.13
20612;BME280;10465;42.686;23.364;2024-02-21T11:06:38;95547.00;;;12.62;52.23
20612;BME280;10465;42.686;23.364;2024-02-21T11:09:04;95569.53;;;12.65;52.73
20612;BME280;10465;42.686;23.364;2024-02-21T11:11:43;95563.06;;;12.57;51.71
20612;BME280;10465;42.686;23.364;2024-02-21T11:14:19;95540.72;;;12.58;51.02
20612;BME280;10465;42.686;23.364;2024-02-21T11:16:45;95561.38;;;13.06;50.68
20612;BME280;10465;42.686;23.364;2024-02-21T11:19:27;95536.88;;;13.40;48.39
20612;BME280;10465;42.686;23.364;2024-02-21T11:21:55;95553.19;;;13.78;45.99
20612;BME280;10465;42.686;23.364;2024-02-21T11:24:31;95539.88;;;13.78;44.72
20612;BME280;10465;42.686;23.364;2024-02-21T11:27:08;95547.50;;;14.28;42.60
20612;BME280;10465;42.686;23.364;2024-02-21T11:29:57;95538.94;;;14.66;41.76
20612;BME280;10465;42.686;23.364;2024-02-21T11:32:25;95551.78;;;14.90;41.05
20612;BME280;10465;42.686;23.364;2024-02-21T11:37:21;95545.97;;;15.05;40.02
20612;BME280;10465;42.686;23.364;2024-02-21T11:39:49;95484.72;;;14.53;39.70
20612;BME280;10465;42.686;23.364;2024-02-21T11:42:15;95543.63;;;14.78;39.75
20612;BME280;10465;42.686;23.364;2024-02-21T11:44:40;95537.81;;;14.50;40.78
20612;BME280;10465;42.686;23.364;2024-02-21T11:47:08;95524.75;;;14.14;41.68
20612;BME280;10465;42.686;23.364;2024-02-21T11:49:45;95527.84;;;13.90;42.65
20612;BME280;10465;42.686;23.364;2024-02-21T11:52:11;95509.75;;;13.60;43.18
20612;BME280;10465;42.686;23.364;2024-02-21T11:54:36;95513.91;;;13.44;43.90
20612;BME280;10465;42.686;23.364;2024-02-21T11:57:02;95523.69;;;13.26;44.86
20612;BME280;10465;42.686;23.364;2024-02-21T11:59:33;95526.22;;;13.09;45.66
20612;BME280;10465;42.686;23.364;2024-02-21T12:02:02;95525.94;;;12.88;46.11
20612;BME280;10465;42.686;23.364;2024-02-21T12:04:30;95510.47;;;12.68;46.12
20612;BME280;10465;42.686;23.364;2024-02-21T12:06:59;95525.34;;;12.69;46.87
20612;BME280;10465;42.686;23.364;2024-02-21T12:09:25;95517.91;;;12.57;46.98
20612;BME280;10465;42.686;23.364;2024-02-21T12:12:01;95503.59;;;12.44;46.60
20612;BME280;10465;42.686;23.364;2024-02-21T12:14:29;95515.00;;;12.45;47.66
20612;BME280;10465;42.686;23.364;2024-02-21T12:16:55;95487.94;;;12.20;48.33
20612;BME280;10465;42.686;23.364;2024-02-21T12:19:20;95507.88;;;12.18;48.81
20612;BME280;10465;42.686;23.364;2024-02-21T12:21:48;95513.50;;;12.16;49.55
20612;BME280;10465;42.686;23.364;2024-02-21T12:24:15;95512.88;;;12.19;50.00
20612;BME280;10465;42.686;23.364;2024-02-21T12:26:41;95506.53;;;12.06;50.43
20612;BME280;10465;42.686;23.364;2024-02-21T12:29:07;95497.63;;;11.88;50.31
20612;BME280;10465;42.686;23.364;2024-02-21T12:31:37;95503.59;;;11.94;50.30
20612;BME280;10465;42.686;23.364;2024-02-21T12:34:03;95507.75;;;11.86;50.02
20612;BME280;10465;42.686;23.364;2024-02-21T12:36:29;95498.78;;;11.82;50.63
20612;BME280;10465;42.686;23.364;2024-02-21T12:38:55;95496.03;;;11.74;51.08
20612;BME280;10465;42.686;23.364;2024-02-21T12:41:20;95496.22;;;11.77;50.91
20612;BME280;10465;42.686;23.364;2024-02-21T12:43:46;95495.84;;;11.70;50.77
20612;BME280;10465;42.686;23.364;2024-02-21T12:46:12;95487.09;;;11.70;50.60
20612;BME280;10465;42.686;23.364;2024-02-21T12:48:37;95496.03;;;11.74;50.31
20612;BME280;10465;42.686;23.364;2024-02-21T12:51:03;95498.09;;;11.77;50.16
20612;BME280;10465;42.686;23.364;2024-02-21T12:53:29;95495.75;;;11.75;50.67
20612;BME280;10465;42.686;23.364;2024-02-21T12:55:55;95479.44;;;11.68;52.11
20612;BME280;10465;42.686;23.364;2024-02-21T12:58:21;95499.28;;;11.71;54.24